CDT,Max TemperatureF,Mean TemperatureF,Min TemperatureF,Max Dew PointF,MeanDew PointF,Min DewpointF,Max Humidity, Mean Humidity, Min Humidity, Max Sea Level PressureIn, Mean Sea Level PressureIn, Min Sea Level PressureIn, Max VisibilityMiles, Mean VisibilityMiles, Min VisibilityMiles, Max Wind SpeedMPH, Mean Wind SpeedMPH, Max Gust SpeedMPH,PrecipitationIn, CloudCover, Events, WindDirDegrees
2013-7-1,75,70,64,63,60,55,83,74,65,29.99,29.93,29.88,10,10,10,21,10,25,0.00,5,,51
2013-7-2,62,61,60,61,57,55,94,85,77,30.01,29.99,29.97,10,10,5,13,10,16,0.20,8,,55
2013-7-3,78,71,64,66,64,63,94,74,57,30.09,30.06,30.04,10,9,1,16,10,23,0.00,1,,227
2013-7-4,77,68,60,66,62,55,100,80,50,30.14,30.10,30.07,10,7,0,7,2,,0.00,2,,104
2013-7-5,82,73,64,68,65,63,100,77,54,30.12,30.09,30.05,10,8,1,12,5,,0.00,3,,194
2013-7-6,78,74,69,70,67,64,100,83,65,30.10,30.07,30.01,10,10,8,12,6,,0.00,5,,196
2013-7-7,86,75,64,68,66,63,100,75,48,30.08,30.05,30.00,10,10,5,16,8,22,0.00,2,,217
2013-7-8,87,79,71,72,70,66,83,72,58,30.09,30.04,29.99,10,10,10,21,11,25,0.00,2,,238
2013-7-9,91,83,75,75,72,70,83,71,55,30.03,29.99,29.93,10,10,10,16,12,20,0.00,2,,245
2013-7-10,86,75,64,75,70,57,94,78,69,30.01,29.91,29.82,10,10,3,36,13,50,0.33,3,Thunderstorm,276
2013-7-11,78,68,59,61,57,55,88,64,44,30.06,30.03,29.97,10,10,10,16,8,20,0.00,0,,13
2013-7-12,80,68,57,61,57,54,88,68,47,30.13,30.09,30.06,10,10,9,12,5,16,0.00,1,,51
2013-7-13,82,70,59,66,62,55,94,73,54,30.16,30.12,30.09,10,10,9,13,7,22,0.00,1,,78
2013-7-14,87,76,64,73,69,63,94,77,55,30.22,30.18,30.14,10,9,3,12,6,,0.00,1,,99
2013-7-15,89,80,71,72,71,70,94,73,52,30.29,30.26,30.21,10,10,10,12,6,,0.00,2,,159
2013-7-16,91,80,69,73,70,66,94,71,52,30.34,30.30,30.27,10,10,7,8,2,,0.00,2,,332
2013-7-17,93,82,71,73,71,66,94,70,46,30.35,30.27,30.20,10,10,8,9,2,,0.00,0,,308
2013-7-18,93,82,71,73,71,68,88,68,46,30.21,30.12,30.02,10,10,6,9,3,,0.00,1,,261
2013-7-19,93,83,73,73,71,70,88,65,49,30.03,29.93,29.85,10,10,7,23,11,26,0.00,1,,234
2013-7-20,82,76,71,72,70,68,94,80,70,29.93,29.87,29.81,10,10,8,21,13,26,0.36,1,Thunderstorm,242
2013-7-21,84,76,68,72,69,66,94,78,55,29.97,29.92,29.87,10,8,0,8,5,,0.00,2,,149
2013-7-22,84,76,68,70,68,64,94,79,58,29.88,29.83,29.78,10,10,4,12,4,,0.36,3,,62
2013-7-23,84,72,59,70,64,52,88,70,55,29.92,29.80,29.71,10,10,10,22,10,28,0.00,1,,290
2013-7-24,73,63,53,55,52,48,88,68,47,30.03,29.98,29.90,10,10,10,14,8,18,0.00,1,,30
2013-7-25,75,64,53,57,53,50,94,68,44,30.12,30.08,30.03,10,10,5,8,3,,0.03,1,,89
2013-7-26,80,68,55,61,56,50,88,65,42,30.10,30.02,29.93,10,10,10,15,5,21,0.00,3,,209
2013-7-27,78,68,57,64,56,48,88,64,43,29.93,29.88,29.84,10,10,7,22,12,29,0.00,5,,270
2013-7-28,71,61,51,52,48,45,82,60,43,30.05,29.97,29.92,10,10,10,24,10,32,0.00,3,,268
2013-7-29,77,64,50,57,52,46,87,65,44,30.19,30.13,30.05,10,10,10,14,4,18,0.00,3,,273
2013-7-30,75,64,53,63,58,48,94,77,50,30.22,30.17,30.10,10,10,7,8,3,,0.02,3,,148
2013-7-31,75,70,64,70,64,63,94,89,78,30.11,30.01,29.94,10,6,2,13,6,,0.36,8,,220